sensor_id;sensor_type;location;lat;lon;timestamp;temperature;humidity
26081;DHT22;13991;51.174;4.438;2023-08-07T00:01:32;14.70;99.90
26081;DHT22;13991;51.174;4.438;2023-08-07T00:04:00;14.70;99.90
26081;DHT22;13991;51.174;4.438;2023-08-07T00:06:27;14.60;99.90
26081;DHT22;13991;51.174;4.438;2023-08-07T00:08:53;14.70;99.90
26081;DHT22;13991;51.174;4.438;2023-08-07T00:11:20;14.80;99.90
26081;DHT22;13991;51.174;4.438;2023-08-07T00:13:49;14.90;99.90
26081;DHT22;13991;51.174;4.438;2023-08-07T00:32:24;14.50;99.90
26081;DHT22;13991;51.174;4.438;2023-08-07T00:34:57;14.50;99.90
26081;DHT22;13991;51.174;4.438;2023-08-07T00:37:22;14.50;99.90
26081;DHT22;13991;51.174;4.438;2023-08-07T00:39:48;14.60;99.90
26081;DHT22;13991;51.174;4.438;2023-08-07T00:42:14;14.60;99.90
26081;DHT22;13991;51.174;4.438;2023-08-07T00:44:39;14.70;99.90
26081;DHT22;13991;51.174;4.438;2023-08-07T00:47:06;14.70;99.90
26081;DHT22;13991;51.174;4.438;2023-08-07T00:49:41;14.80;99.90
26081;DHT22;13991;51.174;4.438;2023-08-07T00:52:10;14.60;99.90
26081;DHT22;13991;51.174;4.438;2023-08-07T00:54:37;14.40;99.90
26081;DHT22;13991;51.174;4.438;2023-08-07T00:57:11;14.40;99.90
26081;DHT22;13991;51.174;4.438;2023-08-07T00:59:38;14.50;99.90
26081;DHT22;13991;51.174;4.438;2023-08-07T01:02:06;14.30;99.90
26081;DHT22;13991;51.174;4.438;2023-08-07T01:04:31;14.40;99.90
26081;DHT22;13991;51.174;4.438;2023-08-07T01:06:58;14.30;99.90
26081;DHT22;13991;51.174;4.438;2023-08-07T01:09:25;14.40;99.90
26081;DHT22;13991;51.174;4.438;2023-08-07T01:12:02;14.30;99.90
26081;DHT22;13991;51.174;4.438;2023-08-07T01:14:37;14.20;99.90
26081;DHT22;13991;51.174;4.438;2023-08-07T01:17:20;14.20;99.90
26081;DHT22;13991;51.174;4.438;2023-08-07T01:19:47;14.20;99.90
26081;DHT22;13991;51.174;4.438;2023-08-07T01:22:15;14.20;99.90
26081;DHT22;13991;51.174;4.438;2023-08-07T01:24:51;14.10;99.90
26081;DHT22;13991;51.174;4.438;2023-08-07T01:33:26;14.20;99.90
26081;DHT22;13991;51.174;4.438;2023-08-07T01:35:34;14.20;99.90
26081;DHT22;13991;51.174;4.438;2023-08-07T01:38:02;14.30;99.90
26081;DHT22;13991;51.174;4.438;2023-08-07T01:40:31;14.20;99.90
26081;DHT22;13991;51.174;4.438;2023-08-07T01:42:58;14.20;99.90
26081;DHT22;13991;51.174;4.438;2023-08-07T01:45:28;14.20;99.90
26081;DHT22;13991;51.174;4.438;2023-08-07T01:48:02;14.30;99.90
26081;DHT22;13991;51.174;4.438;2023-08-07T02:04:23;14.30;99.90
26081;DHT22;13991;51.174;4.438;2023-08-07T02:06:50;14.10;99.90
26081;DHT22;13991;51.174;4.438;2023-08-07T02:09:18;14.10;99.90
26081;DHT22;13991;51.174;4.438;2023-08-07T02:11:45;14.10;99.90
26081;DHT22;13991;51.174;4.438;2023-08-07T02:16:48;14.30;99.90
26081;DHT22;13991;51.174;4.438;2023-08-07T02:19:13;14.20;99.90
26081;DHT22;13991;51.174;4.438;2023-08-07T02:21:39;14.20;99.90
26081;DHT22;13991;51.174;4.438;2023-08-07T02:24:12;14.20;99.90
26081;DHT22;13991;51.174;4.438;2023-08-07T02:26:39;14.10;99.90
26081;DHT22;13991;51.174;4.438;2023-08-07T02:29:05;14.00;99.90
26081;DHT22;13991;51.174;4.438;2023-08-07T02:31:32;14.00;99.90
26081;DHT22;13991;51.174;4.438;2023-08-07T02:33:58;13.90;99.90
26081;DHT22;13991;51.174;4.438;2023-08-07T02:36:25;13.80;99.90
26081;DHT22;13991;51.174;4.438;2023-08-07T02:38:52;13.90;99.90
26081;DHT22;13991;51.174;4.438;2023-08-07T02:41:19;13.90;99.90
26081;DHT22;13991;51.174;4.438;2023-08-07T02:43:45;13.90;99.90
26081;DHT22;13991;51.174;4.438;2023-08-07T02:46:12;13.90;99.90
26081;DHT22;13991;51.174;4.438;2023-08-07T02:48:39;14.00;99.90
26081;DHT22;13991;51.174;4.438;2023-08-07T02:51:06;14.00;99.90
26081;DHT22;13991;51.174;4.438;2023-08-07T02:53:33;14.00;99.90
26081;DHT22;13991;51.174;4.438;2023-08-07T02:56:00;13.90;99.90
26081;DHT22;13991;51.174;4.438;2023-08-07T02:58:26;13.80;99.90
26081;DHT22;13991;51.174;4.438;2023-08-07T03:00:52;13.80;99.90
26081;DHT22;13991;51.174;4.438;2023-08-07T03:03:19;13.70;99.90
26081;DHT22;13991;51.174;4.438;2023-08-07T03:05:51;13.80;99.90
26081;DHT22;13991;51.174;4.438;2023-08-07T03:08:18;13.80;99.90
26081;DHT22;13991;51.174;4.438;2023-08-07T03:10:54;13.90;99.90
26081;DHT22;13991;51.174;4.438;2023-08-07T03:13:24;13.90;99.90
26081;DHT22;13991;51.174;4.438;2023-08-07T03:15:53;13.90;99.90
26081;DHT22;13991;51.174;4.438;2023-08-07T03:18:25;13.90;99.90
26081;DHT22;13991;51.174;4.438;2023-08-07T03:20:51;14.20;99.90
26081;DHT22;13991;51.174;4.438;2023-08-07T03:23:18;14.10;99.90
26081;DHT22;13991;51.174;4.438;2023-08-07T03:25:45;14.20;99.90
26081;DHT22;13991;51.174;4.438;2023-08-07T03:28:12;14.10;99.90
26081;DHT22;13991;51.174;4.438;2023-08-07T03:30:37;14.00;99.90
26081;DHT22;13991;51.174;4.438;2023-08-07T03:33:03;13.90;99.90
26081;DHT22;13991;51.174;4.438;2023-08-07T03:35:29;14.10;99.90
26081;DHT22;13991;51.174;4.438;2023-08-07T03:37:55;14.00;99.90
26081;DHT22;13991;51.174;4.438;2023-08-07T03:40:21;14.00;99.90
26081;DHT22;13991;51.174;4.438;2023-08-07T03:42:48;14.00;99.90
26081;DHT22;13991;51.174;4.438;2023-08-07T03:45:15;14.00;99.90
26081;DHT22;13991;51.174;4.438;2023-08-07T03:47:43;13.90;99.90
26081;DHT22;13991;51.174;4.438;2023-08-07T03:50:10;13.90;99.90
26081;DHT22;13991;51.174;4.438;2023-08-07T03:52:35;14.00;99.90
26081;DHT22;13991;51.174;4.438;2023-08-07T03:55:01;14.10;99.90
26081;DHT22;13991;51.174;4.438;2023-08-07T03:57:27;14.20;99.90
26081;DHT22;13991;51.174;4.438;2023-08-07T04:02:39;14.10;99.90
26081;DHT22;13991;51.174;4.438;2023-08-07T04:05:06;14.30;99.90
26081;DHT22;13991;51.174;4.438;2023-08-07T04:07:42;14.10;99.90
26081;DHT22;13991;51.174;4.438;2023-08-07T04:10:18;14.20;99.90
26081;DHT22;13991;51.174;4.438;2023-08-07T04:12:45;14.20;99.90
26081;DHT22;13991;51.174;4.438;2023-08-07T04:15:11;14.10;99.90
26081;DHT22;13991;51.174;4.438;2023-08-07T04:17:39;14.30;99.90
26081;DHT22;13991;51.174;4.438;2023-08-07T04:20:05;14.30;99.90
26081;DHT22;13991;51.174;4.438;2023-08-07T04:22:32;14.30;99.90
26081;DHT22;13991;51.174;4.438;2023-08-07T04:24:59;14.30;99.90
26081;DHT22;13991;51.174;4.438;2023-08-07T04:27:28;14.30;99.90
26081;DHT22;13991;51.174;4.438;2023-08-07T04:29:55;14.30;99.90
26081;DHT22;13991;51.174;4.438;2023-08-07T04:38:10;14.40;99.90
26081;DHT22;13991;51.174;4.438;2023-08-07T04:56:03;14.20;99.90
26081;DHT22;13991;51.174;4.438;2023-08-07T04:58:29;14.20;99.90
26081;DHT22;13991;51.174;4.438;2023-08-07T05:00:56;14.30;99.90
26081;DHT22;13991;51.174;4.438;2023-08-07T05:03:23;14.40;99.90
26081;DHT22;13991;51.174;4.438;2023-08-07T05:05:49;14.30;99.90
26081;DHT22;13991;51.174;4.438;2023-08-07T05:08:14;14.10;99.90
26081;DHT22;13991;51.174;4.438;2023-08-07T05:10:41;14.10;99.90
26081;DHT22;13991;51.174;4.438;2023-08-07T05:13:07;14.00;99.90
26081;DHT22;13991;51.174;4.438;2023-08-07T05:15:33;14.00;99.90
26081;DHT22;13991;51.174;4.438;2023-08-07T05:18:00;13.80;99.90
26081;DHT22;13991;51.174;4.438;2023-08-07T05:20:26;13.70;99.90
26081;DHT22;13991;51.174;4.438;2023-08-07T05:22:51;13.90;99.90
26081;DHT22;13991;51.174;4.438;2023-08-07T05:25:17;14.00;99.90
26081;DHT22;13991;51.174;4.438;2023-08-07T05:30:59;13.80;99.90
26081;DHT22;13991;51.174;4.438;2023-08-07T05:33:25;13.90;99.90
26081;DHT22;13991;51.174;4.438;2023-08-07T05:35:51;13.80;99.90
26081;DHT22;13991;51.174;4.438;2023-08-07T05:38:20;13.90;99.90
26081;DHT22;13991;51.174;4.438;2023-08-07T05:40:48;14.00;99.90
26081;DHT22;13991;51.174;4.438;2023-08-07T05:43:13;14.10;99.90
26081;DHT22;13991;51.174;4.438;2023-08-07T05:45:39;14.00;99.90
26081;DHT22;13991;51.174;4.438;2023-08-07T05:48:05;14.20;99.90
26081;DHT22;13991;51.174;4.438;2023-08-07T05:50:31;14.00;99.90
26081;DHT22;13991;51.174;4.438;2023-08-07T05:52:57;13.90;99.90
26081;DHT22;13991;51.174;4.438;2023-08-07T05:55:23;13.90;99.90
26081;DHT22;13991;51.174;4.438;2023-08-07T05:57:52;14.00;99.90
26081;DHT22;13991;51.174;4.438;2023-08-07T06:00:17;14.10;99.90
26081;DHT22;13991;51.174;4.438;2023-08-07T06:02:45;14.20;99.90
26081;DHT22;13991;51.174;4.438;2023-08-07T06:05:11;14.30;99.90
26081;DHT22;13991;51.174;4.438;2023-08-07T06:07:39;14.20;99.90
26081;DHT22;13991;51.174;4.438;2023-08-07T06:10:05;14.30;99.90
26081;DHT22;13991;51.174;4.438;2023-08-07T06:12:31;14.40;99.90
26081;DHT22;13991;51.174;4.438;2023-08-07T06:14:57;14.50;99.90
26081;DHT22;13991;51.174;4.438;2023-08-07T06:17:23;14.60;99.90
26081;DHT22;13991;51.174;4.438;2023-08-07T06:19:50;14.50;99.90
26081;DHT22;13991;51.174;4.438;2023-08-07T06:22:16;14.70;99.90
26081;DHT22;13991;51.174;4.438;2023-08-07T06:24:44;15.10;99.90
26081;DHT22;13991;51.174;4.438;2023-08-07T06:27:09;15.50;99.90
26081;DHT22;13991;51.174;4.438;2023-08-07T06:29:35;15.90;99.90
26081;DHT22;13991;51.174;4.438;2023-08-07T06:32:03;16.00;99.90
26081;DHT22;13991;51.174;4.438;2023-08-07T06:34:29;16.20;99.90
26081;DHT22;13991;51.174;4.438;2023-08-07T06:36:56;16.20;99.90
26081;DHT22;13991;51.174;4.438;2023-08-07T06:39:22;16.10;99.90
26081;DHT22;13991;51.174;4.438;2023-08-07T06:41:48;16.10;99.90
26081;DHT22;13991;51.174;4.438;2023-08-07T06:44:13;16.20;99.90
26081;DHT22;13991;51.174;4.438;2023-08-07T06:46:39;16.30;99.90
26081;DHT22;13991;51.174;4.438;2023-08-07T06:49:05;16.00;99.90
26081;DHT22;13991;51.174;4.438;2023-08-07T06:51:31;15.90;99.90
26081;DHT22;13991;51.174;4.438;2023-08-07T06:53:58;15.90;99.90
26081;DHT22;13991;51.174;4.438;2023-08-07T06:56:25;15.90;99.90
26081;DHT22;13991;51.174;4.438;2023-08-07T06:58:52;16.10;99.90
26081;DHT22;13991;51.174;4.438;2023-08-07T07:01:19;16.00;99.90
26081;DHT22;13991;51.174;4.438;2023-08-07T07:03:45;16.00;99.90
26081;DHT22;13991;51.174;4.438;2023-08-07T07:06:12;15.80;99.90
26081;DHT22;13991;51.174;4.438;2023-08-07T07:08:38;15.80;99.90
26081;DHT22;13991;51.174;4.438;2023-08-07T07:11:04;16.00;99.90
26081;DHT22;13991;51.174;4.438;2023-08-07T07:13:30;15.80;99.90
26081;DHT22;13991;51.174;4.438;2023-08-07T07:15:57;15.90;99.90
26081;DHT22;13991;51.174;4.438;2023-08-07T07:18:24;15.80;99.90
26081;DHT22;13991;51.174;4.438;2023-08-07T07:46:38;16.80;99.90
26081;DHT22;13991;51.174;4.438;2023-08-07T07:49:05;16.70;99.90
26081;DHT22;13991;51.174;4.438;2023-08-07T07:51:34;16.60;99.90
26081;DHT22;13991;51.174;4.438;2023-08-07T07:54:02;16.70;99.90
26081;DHT22;13991;51.174;4.438;2023-08-07T07:56:28;16.70;99.90
26081;DHT22;13991;51.174;4.438;2023-08-07T07:58:54;16.70;99.90
26081;DHT22;13991;51.174;4.438;2023-08-07T08:01:22;16.60;99.90
26081;DHT22;13991;51.174;4.438;2023-08-07T08:03:48;16.50;99.90
26081;DHT22;13991;51.174;4.438;2023-08-07T08:06:14;16.60;99.90
26081;DHT22;13991;51.174;4.438;2023-08-07T08:08:40;16.60;99.90
26081;DHT22;13991;51.174;4.438;2023-08-07T08:11:07;16.70;99.90
26081;DHT22;13991;51.174;4.438;2023-08-07T08:13:35;16.80;99.90
26081;DHT22;13991;51.174;4.438;2023-08-07T08:16:04;16.80;99.90
26081;DHT22;13991;51.174;4.438;2023-08-07T08:18:31;17.00;99.90
26081;DHT22;13991;51.174;4.438;2023-08-07T08:20:57;17.00;99.90
26081;DHT22;13991;51.174;4.438;2023-08-07T08:23:23;17.20;99.90
26081;DHT22;13991;51.174;4.438;2023-08-07T08:25:49;17.20;99.90
26081;DHT22;13991;51.174;4.438;2023-08-07T08:28:14;17.40;99.90
26081;DHT22;13991;51.174;4.438;2023-08-07T08:30:41;17.40;99.90
26081;DHT22;13991;51.174;4.438;2023-08-07T08:33:07;17.40;99.90
26081;DHT22;13991;51.174;4.438;2023-08-07T08:35:34;17.50;99.90
26081;DHT22;13991;51.174;4.438;2023-08-07T08:38:00;17.50;99.90
26081;DHT22;13991;51.174;4.438;2023-08-07T08:40:28;17.50;99.90
26081;DHT22;13991;51.174;4.438;2023-08-07T08:42:55;17.70;99.90
26081;DHT22;13991;51.174;4.438;2023-08-07T08:45:26;17.70;99.90
26081;DHT22;13991;51.174;4.438;2023-08-07T08:47:59;17.80;99.90
26081;DHT22;13991;51.174;4.438;2023-08-07T08:50:26;18.00;99.90
26081;DHT22;13991;51.174;4.438;2023-08-07T08:52:53;17.70;99.90
26081;DHT22;13991;51.174;4.438;2023-08-07T08:55:21;17.50;99.90
26081;DHT22;13991;51.174;4.438;2023-08-07T08:57:47;17.40;99.90
26081;DHT22;13991;51.174;4.438;2023-08-07T09:00:14;17.70;99.90
26081;DHT22;13991;51.174;4.438;2023-08-07T09:02:50;17.80;99.90
26081;DHT22;13991;51.174;4.438;2023-08-07T09:05:18;17.90;99.90
26081;DHT22;13991;51.174;4.438;2023-08-07T09:07:47;18.20;99.90
26081;DHT22;13991;51.174;4.438;2023-08-07T09:10:14;18.20;99.90
26081;DHT22;13991;51.174;4.438;2023-08-07T09:13:14;17.90;99.90
26081;DHT22;13991;51.174;4.438;2023-08-07T09:15:34;17.90;99.90
26081;DHT22;13991;51.174;4.438;2023-08-07T09:18:05;17.80;99.90
26081;DHT22;13991;51.174;4.438;2023-08-07T09:20:33;17.70;99.90
26081;DHT22;13991;51.174;4.438;2023-08-07T09:22:59;17.60;99.90
26081;DHT22;13991;51.174;4.438;2023-08-07T09:25:33;17.70;99.90
26081;DHT22;13991;51.174;4.438;2023-08-07T09:28:02;17.90;99.90
26081;DHT22;13991;51.174;4.438;2023-08-07T09:30:34;17.80;99.90
26081;DHT22;13991;51.174;4.438;2023-08-07T09:33:00;17.80;99.90
26081;DHT22;13991;51.174;4.438;2023-08-07T09:35:28;17.90;99.90
26081;DHT22;13991;51.174;4.438;2023-08-07T09:37:56;18.10;99.90
26081;DHT22;13991;51.174;4.438;2023-08-07T09:40:23;18.40;99.90
26081;DHT22;13991;51.174;4.438;2023-08-07T09:42:52;18.50;99.90
26081;DHT22;13991;51.174;4.438;2023-08-07T09:45:23;18.60;99.90
26081;DHT22;13991;51.174;4.438;2023-08-07T09:48:02;18.40;99.90
26081;DHT22;13991;51.174;4.438;2023-08-07T09:50:30;18.40;99.90
26081;DHT22;13991;51.174;4.438;2023-08-07T09:52:57;18.30;99.90
26081;DHT22;13991;51.174;4.438;2023-08-07T09:55:26;18.20;99.90
26081;DHT22;13991;51.174;4.438;2023-08-07T09:57:53;18.30;99.90
26081;DHT22;13991;51.174;4.438;2023-08-07T10:00:21;18.40;99.90
26081;DHT22;13991;51.174;4.438;2023-08-07T10:02:48;18.30;99.90
26081;DHT22;13991;51.174;4.438;2023-08-07T10:05:15;18.30;99.90
26081;DHT22;13991;51.174;4.438;2023-08-07T10:07:41;18.40;99.90
26081;DHT22;13991;51.174;4.438;2023-08-07T10:10:07;18.60;99.90
26081;DHT22;13991;51.174;4.438;2023-08-07T10:12:34;18.80;99.90
26081;DHT22;13991;51.174;4.438;2023-08-07T10:15:01;18.90;99.90
26081;DHT22;13991;51.174;4.438;2023-08-07T10:17:30;18.90;99.90
26081;DHT22;13991;51.174;4.438;2023-08-07T10:19:59;18.90;99.90
26081;DHT22;13991;51.174;4.438;2023-08-07T10:22:33;18.70;99.90
26081;DHT22;13991;51.174;4.438;2023-08-07T10:25:02;18.60;99.90
26081;DHT22;13991;51.174;4.438;2023-08-07T10:27:31;18.80;99.90
26081;DHT22;13991;51.174;4.438;2023-08-07T10:29:59;18.90;99.90
26081;DHT22;13991;51.174;4.438;2023-08-07T10:32:28;18.80;99.90
26081;DHT22;13991;51.174;4.438;2023-08-07T10:34:56;19.10;99.90
26081;DHT22;13991;51.174;4.438;2023-08-07T10:37:39;19.20;99.90
26081;DHT22;13991;51.174;4.438;2023-08-07T10:40:09;19.20;99.90
26081;DHT22;13991;51.174;4.438;2023-08-07T10:42:58;19.10;99.90
26081;DHT22;13991;51.174;4.438;2023-08-07T10:45:26;19.00;99.90
26081;DHT22;13991;51.174;4.438;2023-08-07T10:48:12;19.20;99.90
26081;DHT22;13991;51.174;4.438;2023-08-07T10:50:51;19.20;99.90
26081;DHT22;13991;51.174;4.438;2023-08-07T10:53:34;19.30;99.90
26081;DHT22;13991;51.174;4.438;2023-08-07T10:56:04;19.30;99.90
26081;DHT22;13991;51.174;4.438;2023-08-07T10:58:40;19.30;99.90
26081;DHT22;13991;51.174;4.438;2023-08-07T11:03:59;19.50;99.90
26081;DHT22;13991;51.174;4.438;2023-08-07T11:06:29;19.80;99.90
26081;DHT22;13991;51.174;4.438;2023-08-07T11:08:57;19.90;99.90
26081;DHT22;13991;51.174;4.438;2023-08-07T11:11:23;19.70;99.90
26081;DHT22;13991;51.174;4.438;2023-08-07T11:13:57;19.40;99.90
26081;DHT22;13991;51.174;4.438;2023-08-07T11:16:24;19.20;99.90
26081;DHT22;13991;51.174;4.438;2023-08-07T11:18:54;19.40;99.90
26081;DHT22;13991;51.174;4.438;2023-08-07T11:21:20;19.60;99.90
26081;DHT22;13991;51.174;4.438;2023-08-07T11:23:46;19.70;99.90
26081;DHT22;13991;51.174;4.438;2023-08-07T11:26:12;19.90;99.90
26081;DHT22;13991;51.174;4.438;2023-08-07T11:28:39;19.70;99.90
26081;DHT22;13991;51.174;4.438;2023-08-07T11:31:06;19.60;99.90
26081;DHT22;13991;51.174;4.438;2023-08-07T11:33:35;19.50;99.90
26081;DHT22;13991;51.174;4.438;2023-08-07T11:36:01;19.60;99.90
26081;DHT22;13991;51.174;4.438;2023-08-07T11:38:41;19.50;99.90
26081;DHT22;13991;51.174;4.438;2023-08-07T11:41:12;19.60;99.90
26081;DHT22;13991;51.174;4.438;2023-08-07T11:43:39;19.40;99.90
26081;DHT22;13991;51.174;4.438;2023-08-07T11:46:08;19.40;99.90
26081;DHT22;13991;51.174;4.438;2023-08-07T11:48:36;19.50;99.90
26081;DHT22;13991;51.174;4.438;2023-08-07T11:51:05;19.60;99.90
26081;DHT22;13991;51.174;4.438;2023-08-07T11:53:33;19.90;99.90
26081;DHT22;13991;51.174;4.438;2023-08-07T11:56:01;20.10;99.90
26081;DHT22;13991;51.174;4.438;2023-08-07T11:58:33;20.10;99.90
26081;DHT22;13991;51.174;4.438;2023-08-07T12:00:59;20.20;99.90
26081;DHT22;13991;51.174;4.438;2023-08-07T12:03:30;20.40;99.90
26081;DHT22;13991;51.174;4.438;2023-08-07T12:06:01;20.80;99.90
26081;DHT22;13991;51.174;4.438;2023-08-07T12:08:38;21.20;99.90
26081;DHT22;13991;51.174;4.438;2023-08-07T12:11:10;21.10;99.90
26081;DHT22;13991;51.174;4.438;2023-08-07T12:13:41;20.80;99.90
26081;DHT22;13991;51.174;4.438;2023-08-07T12:16:08;20.30;99.90
26081;DHT22;13991;51.174;4.438;2023-08-07T12:18:34;20.30;99.90
26081;DHT22;13991;51.174;4.438;2023-08-07T12:21:04;20.30;99.90
26081;DHT22;13991;51.174;4.438;2023-08-07T12:23:33;20.50;99.90
26081;DHT22;13991;51.174;4.438;2023-08-07T12:26:00;20.10;99.90
26081;DHT22;13991;51.174;4.438;2023-08-07T12:28:26;20.00;99.90
26081;DHT22;13991;51.174;4.438;2023-08-07T12:30:52;19.90;99.90
26081;DHT22;13991;51.174;4.438;2023-08-07T12:33:18;19.90;99.90
26081;DHT22;13991;51.174;4.438;2023-08-07T12:35:44;19.80;99.90
26081;DHT22;13991;51.174;4.438;2023-08-07T12:38:11;19.80;99.90
26081;DHT22;13991;51.174;4.438;2023-08-07T12:40:40;20.00;99.90
26081;DHT22;13991;51.174;4.438;2023-08-07T12:43:07;20.20;99.90
26081;DHT22;13991;51.174;4.438;2023-08-07T12:45:33;20.40;99.90
26081;DHT22;13991;51.174;4.438;2023-08-07T12:47:59;20.40;99.90
26081;DHT22;13991;51.174;4.438;2023-08-07T12:50:27;20.30;99.90
26081;DHT22;13991;51.174;4.438;2023-08-07T12:52:53;20.10;99.90
26081;DHT22;13991;51.174;4.438;2023-08-07T12:55:18;20.20;99.90
26081;DHT22;13991;51.174;4.438;2023-08-07T12:57:46;20.30;99.90
26081;DHT22;13991;51.174;4.438;2023-08-07T13:00:14;20.50;99.90
26081;DHT22;13991;51.174;4.438;2023-08-07T13:02:43;20.70;99.90
26081;DHT22;13991;51.174;4.438;2023-08-07T13:05:12;20.30;99.90
26081;DHT22;13991;51.174;4.438;2023-08-07T13:07:38;20.00;99.90
26081;DHT22;13991;51.174;4.438;2023-08-07T13:10:07;20.00;99.90
26081;DHT22;13991;51.174;4.438;2023-08-07T13:12:36;20.00;99.90
26081;DHT22;13991;51.174;4.438;2023-08-07T13:15:03;20.00;99.90
26081;DHT22;13991;51.174;4.438;2023-08-07T13:17:31;19.90;99.90
26081;DHT22;13991;51.174;4.438;2023-08-07T13:20:01;20.10;99.90
26081;DHT22;13991;51.174;4.438;2023-08-07T13:22:28;19.90;99.90
26081;DHT22;13991;51.174;4.438;2023-08-07T13:24:54;19.90;99.90
26081;DHT22;13991;51.174;4.438;2023-08-07T13:27:20;20.30;99.90
26081;DHT22;13991;51.174;4.438;2023-08-07T13:29:47;20.40;99.90
26081;DHT22;13991;51.174;4.438;2023-08-07T13:32:14;20.40;99.90
26081;DHT22;13991;51.174;4.438;2023-08-07T13:34:40;20.60;99.90
26081;DHT22;13991;51.174;4.438;2023-08-07T13:37:06;20.50;99.90
26081;DHT22;13991;51.174;4.438;2023-08-07T13:39:33;20.20;99.90
26081;DHT22;13991;51.174;4.438;2023-08-07T13:42:02;19.90;99.90
26081;DHT22;13991;51.174;4.438;2023-08-07T13:44:28;19.80;99.90
26081;DHT22;13991;51.174;4.438;2023-08-07T13:46:54;19.70;99.90
26081;DHT22;13991;51.174;4.438;2023-08-07T13:49:25;19.60;99.90
26081;DHT22;13991;51.174;4.438;2023-08-07T13:51:52;19.60;99.90
26081;DHT22;13991;51.174;4.438;2023-08-07T13:54:18;19.80;99.90
26081;DHT22;13991;51.174;4.438;2023-08-07T14:01:55;19.90;99.90
26081;DHT22;13991;51.174;4.438;2023-08-07T14:11:11;20.10;99.90
26081;DHT22;13991;51.174;4.438;2023-08-07T14:13:39;20.00;99.90
26081;DHT22;13991;51.174;4.438;2023-08-07T14:16:05;20.20;99.90
26081;DHT22;13991;51.174;4.438;2023-08-07T14:22:48;20.40;99.90
26081;DHT22;13991;51.174;4.438;2023-08-07T14:39:30;20.30;99.90
26081;DHT22;13991;51.174;4.438;2023-08-07T14:42:02;20.20;99.90
26081;DHT22;13991;51.174;4.438;2023-08-07T14:44:28;20.20;99.90
26081;DHT22;13991;51.174;4.438;2023-08-07T14:50:24;20.30;99.90
26081;DHT22;13991;51.174;4.438;2023-08-07T14:52:50;20.50;99.90
26081;DHT22;13991;51.174;4.438;2023-08-07T14:55:28;20.50;99.90
26081;DHT22;13991;51.174;4.438;2023-08-07T14:57:56;20.60;99.90
26081;DHT22;13991;51.174;4.438;2023-08-07T15:00:23;20.40;99.90
26081;DHT22;13991;51.174;4.438;2023-08-07T15:06:23;20.40;99.90
26081;DHT22;13991;51.174;4.438;2023-08-07T15:12:31;20.70;99.90
26081;DHT22;13991;51.174;4.438;2023-08-07T15:18:27;20.60;99.90
26081;DHT22;13991;51.174;4.438;2023-08-07T15:27:49;20.20;99.90
26081;DHT22;13991;51.174;4.438;2023-08-07T15:30:20;20.40;99.90
26081;DHT22;13991;51.174;4.438;2023-08-07T15:32:57;20.30;99.90
26081;DHT22;13991;51.174;4.438;2023-08-07T15:35:53;20.40;99.90
26081;DHT22;13991;51.174;4.438;2023-08-07T15:42:18;20.00;99.90
26081;DHT22;13991;51.174;4.438;2023-08-07T15:45:12;19.70;99.90
26081;DHT22;13991;51.174;4.438;2023-08-07T15:51:02;19.70;99.90
26081;DHT22;13991;51.174;4.438;2023-08-07T15:53:28;20.00;99.90
26081;DHT22;13991;51.174;4.438;2023-08-07T15:59:25;20.00;99.90
26081;DHT22;13991;51.174;4.438;2023-08-07T16:01:55;20.00;99.90
26081;DHT22;13991;51.174;4.438;2023-08-07T16:08:17;20.10;99.90
26081;DHT22;13991;51.174;4.438;2023-08-07T16:11:10;20.30;99.90
26081;DHT22;13991;51.174;4.438;2023-08-07T16:13:39;20.30;99.90
26081;DHT22;13991;51.174;4.438;2023-08-07T16:16:38;20.30;99.90
26081;DHT22;13991;51.174;4.438;2023-08-07T16:19:08;20.20;99.90
26081;DHT22;13991;51.174;4.438;2023-08-07T16:21:45;20.30;99.90
26081;DHT22;13991;51.174;4.438;2023-08-07T16:24:20;20.40;99.90
26081;DHT22;13991;51.174;4.438;2023-08-07T16:30:31;20.60;99.90
26081;DHT22;13991;51.174;4.438;2023-08-07T16:36:38;20.30;99.90
26081;DHT22;13991;51.174;4.438;2023-08-07T16:45:44;20.10;99.90
26081;DHT22;13991;51.174;4.438;2023-08-07T16:48:51;20.30;99.90
26081;DHT22;13991;51.174;4.438;2023-08-07T17:06:20;19.50;99.90
26081;DHT22;13991;51.174;4.438;2023-08-07T17:09:03;19.50;99.90
26081;DHT22;13991;51.174;4.438;2023-08-07T17:14:50;19.40;99.90
26081;DHT22;13991;51.174;4.438;2023-08-07T17:20:44;19.40;99.90
26081;DHT22;13991;51.174;4.438;2023-08-07T17:23:12;19.30;99.90
26081;DHT22;13991;51.174;4.438;2023-08-07T17:25:40;19.30;99.90
26081;DHT22;13991;51.174;4.438;2023-08-07T17:28:17;19.30;99.90
26081;DHT22;13991;51.174;4.438;2023-08-07T17:31:05;19.50;99.90
26081;DHT22;13991;51.174;4.438;2023-08-07T17:33:32;19.50;99.90
26081;DHT22;13991;51.174;4.438;2023-08-07T17:36:01;19.60;99.90
26081;DHT22;13991;51.174;4.438;2023-08-07T17:38:42;19.50;99.90
26081;DHT22;13991;51.174;4.438;2023-08-07T17:41:13;19.30;99.90
26081;DHT22;13991;51.174;4.438;2023-08-07T17:43:40;19.30;99.90
26081;DHT22;13991;51.174;4.438;2023-08-07T17:46:12;19.60;99.90
26081;DHT22;13991;51.174;4.438;2023-08-07T17:48:38;19.60;99.90
26081;DHT22;13991;51.174;4.438;2023-08-07T17:51:14;19.60;99.90
26081;DHT22;13991;51.174;4.438;2023-08-07T17:54:03;19.50;99.90
26081;DHT22;13991;51.174;4.438;2023-08-07T17:57:28;19.50;99.90
26081;DHT22;13991;51.174;4.438;2023-08-07T17:59:54;19.40;99.90
26081;DHT22;13991;51.174;4.438;2023-08-07T18:06:03;19.40;99.90
26081;DHT22;13991;51.174;4.438;2023-08-07T18:08:29;19.50;99.90
26081;DHT22;13991;51.174;4.438;2023-08-07T18:10:54;19.40;99.90
26081;DHT22;13991;51.174;4.438;2023-08-07T18:13:37;19.40;99.90
26081;DHT22;13991;51.174;4.438;2023-08-07T18:22:51;19.70;99.90
26081;DHT22;13991;51.174;4.438;2023-08-07T18:25:24;19.70;99.90
26081;DHT22;13991;51.174;4.438;2023-08-07T18:58:46;19.30;99.90
26081;DHT22;13991;51.174;4.438;2023-08-07T19:01:12;19.20;99.90
26081;DHT22;13991;51.174;4.438;2023-08-07T19:42:23;18.60;99.90
26081;DHT22;13991;51.174;4.438;2023-08-07T19:44:50;18.70;99.90
26081;DHT22;13991;51.174;4.438;2023-08-07T19:47:16;18.80;99.90
26081;DHT22;13991;51.174;4.438;2023-08-07T19:49:41;18.80;99.90
26081;DHT22;13991;51.174;4.438;2023-08-07T19:52:08;18.70;99.90
26081;DHT22;13991;51.174;4.438;2023-08-07T19:54:37;18.70;99.90
26081;DHT22;13991;51.174;4.438;2023-08-07T19:57:02;18.70;99.90
26081;DHT22;13991;51.174;4.438;2023-08-07T19:59:29;18.70;99.90
26081;DHT22;13991;51.174;4.438;2023-08-07T20:02:01;18.60;99.90
26081;DHT22;13991;51.174;4.438;2023-08-07T20:04:28;18.50;99.90
26081;DHT22;13991;51.174;4.438;2023-08-07T20:06:54;18.50;99.90
26081;DHT22;13991;51.174;4.438;2023-08-07T20:09:20;18.40;99.90
26081;DHT22;13991;51.174;4.438;2023-08-07T20:11:46;18.50;99.90
26081;DHT22;13991;51.174;4.438;2023-08-07T20:14:12;18.40;99.90
26081;DHT22;13991;51.174;4.438;2023-08-07T20:16:37;18.30;99.90